createdAt,value
2023-05-10T00:00:59.390Z,73.00
2023-05-10T00:06:02.583Z,73.30
2023-05-10T00:11:06.036Z,73.60
2023-05-10T00:16:09.105Z,73.70
2023-05-10T00:21:12.091Z,73.90
2023-05-10T00:26:15.206Z,74.30
2023-05-10T00:31:18.106Z,74.80
2023-05-10T00:36:22.008Z,75.30
2023-05-10T00:41:24.980Z,76.00
2023-05-10T00:46:29.599Z,76.60
2023-05-10T00:51:33.061Z,77.10
2023-05-10T00:56:36.384Z,77.40
2023-05-10T01:01:40.107Z,77.90
2023-05-10T01:06:44.315Z,78.60
2023-05-10T01:11:48.576Z,79.10
2023-05-10T01:16:52.337Z,79.60
2023-05-10T01:22:32.697Z,80.00
2023-05-10T01:27:57.587Z,80.70
2023-05-10T01:33:12.792Z,81.20
2023-05-10T01:38:48.651Z,81.60
2023-05-10T01:44:21.645Z,82.10
2023-05-10T01:49:31.870Z,82.50
2023-05-10T01:54:36.809Z,83.20
2023-05-10T01:59:41.994Z,83.20
2023-05-10T02:04:47.395Z,83.60
2023-05-10T02:09:51.975Z,83.90
2023-05-10T02:14:55.549Z,84.70
2023-05-10T02:20:01.001Z,85.00
2023-05-10T02:25:05.544Z,85.60
2023-05-10T02:30:10.511Z,86.40
2023-05-10T02:35:13.915Z,86.90
2023-05-10T02:40:18.935Z,87.90
2023-05-10T02:45:29.205Z,88.00
2023-05-10T02:50:34.973Z,88.60
2023-05-10T02:55:42.766Z,88.80
2023-05-10T03:00:47.252Z,88.80
2023-05-10T03:05:50.176Z,89.10
2023-05-10T03:11:34.402Z,89.40
2023-05-10T03:16:58.854Z,89.30
2023-05-10T03:22:09.789Z,89.60
2023-05-10T03:27:15.413Z,90.00
2023-05-10T03:32:18.582Z,90.20
2023-05-10T03:37:21.595Z,90.30
2023-05-10T03:42:24.715Z,90.40
2023-05-10T03:47:27.702Z,91.10
2023-05-10T03:52:31.227Z,91.20
2023-05-10T03:57:34.933Z,91.40
2023-05-10T04:02:38.611Z,91.60
2023-05-10T04:07:41.673Z,91.80
2023-05-10T04:12:44.858Z,92.30
2023-05-10T04:17:48.312Z,92.40
2023-05-10T04:22:51.374Z,92.70
2023-05-10T04:27:54.423Z,93.00
2023-05-10T04:32:57.448Z,93.40
2023-05-10T04:38:00.499Z,93.80
2023-05-10T04:43:03.613Z,94.30
2023-05-10T04:48:06.918Z,94.70
2023-05-10T04:53:09.936Z,95.10
2023-05-10T04:58:12.947Z,95.40
2023-05-10T05:03:16.065Z,96.00
2023-05-10T05:08:19.662Z,96.30
2023-05-10T05:13:22.930Z,96.70
2023-05-10T05:18:26.123Z,96.90
2023-05-10T05:23:29.195Z,97.10
2023-05-10T05:28:35.486Z,97.00
2023-05-10T05:33:38.576Z,97.10
2023-05-10T05:38:41.642Z,97.00
2023-05-10T05:43:44.674Z,96.80
2023-05-10T05:48:47.598Z,96.80
2023-05-10T05:53:51.168Z,96.80
2023-05-10T05:58:54.293Z,96.20
2023-05-10T06:03:57.343Z,96.00
2023-05-10T06:09:00.315Z,95.90
2023-05-10T06:14:08.810Z,96.10
2023-05-10T06:19:11.790Z,95.70
2023-05-10T06:24:14.757Z,95.30
2023-05-10T06:29:17.882Z,94.40
2023-05-10T06:34:21.079Z,93.10
2023-05-10T06:39:24.049Z,92.10
2023-05-10T06:44:27.031Z,91.90
2023-05-10T06:49:29.949Z,91.60
2023-05-10T06:54:32.985Z,91.20
2023-05-10T06:59:37.696Z,90.40
2023-05-10T07:04:41.025Z,90.30
2023-05-10T07:09:44.460Z,90.10
2023-05-10T07:14:47.842Z,89.50
2023-05-10T07:19:51.078Z,89.80
2023-05-10T07:24:54.325Z,89.70
2023-05-10T07:29:57.641Z,89.10
2023-05-10T07:35:00.758Z,87.60
2023-05-10T07:40:03.998Z,86.10
2023-05-10T07:45:07.866Z,86.10
2023-05-10T07:50:11.107Z,85.50
2023-05-10T07:55:15.843Z,86.00
2023-05-10T08:00:21.163Z,85.70
2023-05-10T08:05:24.193Z,84.30
2023-05-10T08:10:27.351Z,84.30
2023-05-10T08:15:30.501Z,83.90
2023-05-10T08:20:33.577Z,83.30
2023-05-10T08:25:37.167Z,83.70
2023-05-10T08:30:40.750Z,83.20
2023-05-10T08:35:43.789Z,82.50
2023-05-10T08:40:47.812Z,82.60
2023-05-10T08:45:52.729Z,83.20
2023-05-10T08:50:57.432Z,83.40
2023-05-10T08:56:02.269Z,83.30
2023-05-10T09:01:07.051Z,82.90
2023-05-10T09:06:10.129Z,82.50
2023-05-10T09:11:14.244Z,81.40
2023-05-10T09:16:21.607Z,80.70
2023-05-10T09:21:26.107Z,80.40
2023-05-10T09:26:29.108Z,79.30
2023-05-10T09:31:55.555Z,77.20
2023-05-10T09:37:05.378Z,77.80
2023-05-10T09:42:10.736Z,76.70
2023-05-10T09:47:20.109Z,75.00
2023-05-10T09:52:23.390Z,74.20
2023-05-10T09:57:27.405Z,74.90
2023-05-10T10:02:30.569Z,74.30
2023-05-10T10:07:33.888Z,74.00
2023-05-10T10:12:38.779Z,73.00
2023-05-10T10:17:44.390Z,71.90
2023-05-10T10:22:48.855Z,71.50
2023-05-10T10:27:55.029Z,69.90
2023-05-10T10:33:48.280Z,70.40
2023-05-10T10:39:02.296Z,68.40
2023-05-10T10:44:27.055Z,68.00
2023-05-10T10:49:44.682Z,67.80
2023-05-10T10:55:11.876Z,67.70
2023-05-10T11:00:46.646Z,66.50
2023-05-10T11:05:52.110Z,67.60
2023-05-10T11:11:02.350Z,65.80
2023-05-10T11:16:28.174Z,63.90
2023-05-10T11:21:35.599Z,62.70
2023-05-10T11:26:38.749Z,62.60
2023-05-10T11:31:47.694Z,64.40
2023-05-10T11:36:57.608Z,65.40
2023-05-10T11:42:01.228Z,65.00
2023-05-10T11:47:04.583Z,64.80
2023-05-10T11:52:09.328Z,64.60
2023-05-10T11:57:12.562Z,65.20
2023-05-10T12:02:16.231Z,64.00
2023-05-10T12:07:19.240Z,64.30
2023-05-10T12:12:22.270Z,63.60
2023-05-10T12:17:29.953Z,63.60
2023-05-10T12:22:36.298Z,62.80
2023-05-10T12:27:39.439Z,62.90
2023-05-10T12:32:43.360Z,62.90
2023-05-10T12:37:46.456Z,63.00
2023-05-10T12:42:49.876Z,62.80
2023-05-10T12:47:52.976Z,63.30
2023-05-10T12:52:56.040Z,63.00
2023-05-10T12:57:58.957Z,63.00
2023-05-10T13:03:02.042Z,63.20
2023-05-10T13:08:05.489Z,63.50
2023-05-10T13:13:09.494Z,62.20
2023-05-10T13:18:12.503Z,61.50
2023-05-10T13:23:15.288Z,61.30
2023-05-10T13:28:18.203Z,61.20
2023-05-10T13:33:21.153Z,61.80
2023-05-10T13:38:24.177Z,61.10
2023-05-10T13:43:27.008Z,60.90
2023-05-10T13:48:30.117Z,59.00
2023-05-10T13:53:33.220Z,58.10
2023-05-10T13:58:37.489Z,59.20
2023-05-10T14:03:41.148Z,57.90
2023-05-10T14:08:44.336Z,57.70
2023-05-10T14:13:47.581Z,58.10
2023-05-10T14:18:50.586Z,57.50
2023-05-10T14:23:53.588Z,58.40
2023-05-10T14:28:56.600Z,57.40
2023-05-10T14:34:00.246Z,56.80
2023-05-10T14:39:03.880Z,57.10
2023-05-10T14:44:06.965Z,57.80
2023-05-10T14:49:09.978Z,58.20
2023-05-10T14:54:12.936Z,58.60
2023-05-10T14:59:15.952Z,58.80
2023-05-10T15:04:19.251Z,58.60
2023-05-10T15:09:22.657Z,58.20
2023-05-10T15:14:25.692Z,57.40
2023-05-10T15:19:30.212Z,57.30
2023-05-10T15:24:33.270Z,57.40
2023-05-10T15:29:36.911Z,57.20
2023-05-10T15:34:39.838Z,55.80
2023-05-10T15:39:42.740Z,55.30
2023-05-10T15:44:46.094Z,54.90
2023-05-10T15:49:49.019Z,54.90
2023-05-10T15:54:52.333Z,54.30
2023-05-10T15:59:56.378Z,54.70
2023-05-10T16:04:59.872Z,55.80
2023-05-10T16:10:04.253Z,56.70
2023-05-10T16:15:08.798Z,57.50
2023-05-10T16:20:12.132Z,58.30
2023-05-10T16:25:15.517Z,58.90
2023-05-10T16:30:18.940Z,59.50
2023-05-10T16:35:23.546Z,60.10
2023-05-10T16:40:26.607Z,60.40
2023-05-10T16:45:32.707Z,60.50
2023-05-10T16:50:35.715Z,60.60
2023-05-10T16:55:38.462Z,61.30
2023-05-10T17:00:41.469Z,60.80
2023-05-10T17:05:44.649Z,60.60
2023-05-10T17:10:47.626Z,60.90
2023-05-10T17:15:50.604Z,61.00
2023-05-10T17:20:53.649Z,61.40
2023-05-10T17:25:56.486Z,61.60
2023-05-10T17:31:00.179Z,62.20
2023-05-10T17:36:05.995Z,62.10
2023-05-10T17:41:08.899Z,62.20
2023-05-10T17:46:12.912Z,62.20
2023-05-10T17:51:16.060Z,62.10
2023-05-10T17:56:19.140Z,62.20
2023-05-10T18:01:22.363Z,62.30
2023-05-10T18:06:26.390Z,62.30
2023-05-10T18:11:29.431Z,62.40
2023-05-10T18:16:32.506Z,62.50
2023-05-10T18:21:35.879Z,62.50
2023-05-10T18:26:38.800Z,62.70
2023-05-10T18:31:41.944Z,63.00
2023-05-10T18:36:45.214Z,63.40
2023-05-10T18:41:48.284Z,63.90
2023-05-10T18:46:54.074Z,64.40
2023-05-10T18:51:57.216Z,64.80
2023-05-10T18:57:00.158Z,65.20
2023-05-10T19:02:03.337Z,66.00
2023-05-10T19:07:06.328Z,66.70
2023-05-10T19:12:09.268Z,67.50
2023-05-10T19:17:13.377Z,68.10
2023-05-10T19:22:17.731Z,68.70
2023-05-10T19:27:23.052Z,69.10
2023-05-10T19:32:26.068Z,69.50
2023-05-10T19:37:29.110Z,70.00
2023-05-10T19:42:32.137Z,70.40
2023-05-10T19:47:36.425Z,70.80
2023-05-10T19:52:39.435Z,71.40
2023-05-10T19:57:42.265Z,71.80
2023-05-10T20:02:45.288Z,72.40
2023-05-10T20:07:48.340Z,72.70
2023-05-10T20:12:52.909Z,73.20
2023-05-10T20:17:56.376Z,73.50
2023-05-10T20:22:59.420Z,74.00
2023-05-10T20:28:02.398Z,74.20
2023-05-10T20:33:05.650Z,74.60
2023-05-10T20:38:08.751Z,74.90
2023-05-10T20:43:11.964Z,75.10
2023-05-10T20:48:15.146Z,75.20
2023-05-10T20:53:19.071Z,75.30
2023-05-10T20:58:22.154Z,75.60
2023-05-10T21:03:25.038Z,75.60
2023-05-10T21:08:28.018Z,75.70
2023-05-10T21:13:31.860Z,75.70
2023-05-10T21:18:34.806Z,75.70
2023-05-10T21:23:38.245Z,75.70
2023-05-10T21:28:42.405Z,75.90
2023-05-10T21:33:46.254Z,75.90
2023-05-10T21:38:50.576Z,76.10
2023-05-10T21:43:53.663Z,76.10
2023-05-10T21:48:56.825Z,76.40
2023-05-10T21:54:01.040Z,76.70
2023-05-10T21:59:05.086Z,76.70
2023-05-10T22:04:08.100Z,76.90
2023-05-10T22:09:11.084Z,77.20
2023-05-10T22:14:14.035Z,77.20
2023-05-10T22:19:17.202Z,77.00
2023-05-10T22:24:20.144Z,77.10
2023-05-10T22:29:23.967Z,77.10
2023-05-10T22:34:26.916Z,77.10
2023-05-10T22:39:29.950Z,77.20
2023-05-10T22:44:32.825Z,77.10
2023-05-10T22:49:36.217Z,77.00
2023-05-10T22:54:39.194Z,76.90
2023-05-10T22:59:42.492Z,76.80
2023-05-10T23:04:45.399Z,77.40
2023-05-10T23:09:48.927Z,77.30
2023-05-10T23:14:51.954Z,77.40
2023-05-10T23:19:54.843Z,77.40
2023-05-10T23:24:58.873Z,77.40
2023-05-10T23:30:01.789Z,77.40
2023-05-10T23:35:06.667Z,77.60
2023-05-10T23:40:11.786Z,78.00
2023-05-10T23:45:14.784Z,78.40
2023-05-10T23:50:18.210Z,78.80
2023-05-10T23:55:21.509Z,79.00
